Weather at Cottonwood Airport

Public forecast

Using degrees Fahrenheit for public forecast. Weather courtesy of forecast.io.

Closest aviation weather report (METAR) to Cottonwood Airport

Closest report is Sedona Airport, 14.1 nm (26.1 km) ENE. Retrieved 2021/07/29 02:35 UTC (0 seconds ago):

KSEZ 290235Z AUTO 35003KT 10SM CLR 27/15 A3016 RMK AO2 LTG DSNT E

Closest aviation forecast (TAF) to Cottonwood Airport

Closest forecast is Sedona Airport, 14.1 nm (26.1 km) ENE. Retrieved 2021-07-29 00:22 UTC (2 hours ago):

TAF KSEZ 282320Z 2900/2924 05008KT P6SM SCT090 BKN100 FM291900 VRB05KT P6SM VCTS SCT070CB BKN090 PROB30 2919/2924 4SM TSRA OVC050CB